Time;durP1;ratioP1;P1;durP2;ratioP2;P2;SDS_P1;SDS_P2;PMS_P1;PMS_P2;Temp;Humidity;BMP_temperature;BMP_pressure;BME280_temperature;BME280_humidity;BME280_pressure;Samples;Min_cycle;Max_cycle;Signal;HPM_P1;HPM_P2
2022/09/04 00:01:56;;;;;;;3.45;0.98;;;18.00;73.00;;;;;;4969735;28;20469;-72
2022/09/04 00:04:51;;;;;;;1.52;0.95;;;18.00;73.10;;;;;;4966043;28;20050;-72
2022/09/04 00:07:36;;;;;;;1.80;0.90;;;18.00;73.50;;;;;;4969237;28;20202;-72
2022/09/04 00:10:18;;;;;;;1.88;0.90;;;17.80;73.10;;;;;;4968521;28;20047;-73
2022/09/04 00:12:55;;;;;;;2.83;1.20;;;17.90;73.10;;;;;;4973415;28;20078;-72
2022/09/04 00:15:48;;;;;;;1.77;1.08;;;17.90;73.40;;;;;;4972037;28;20114;-72
2022/09/04 00:18:44;;;;;;;2.60;1.00;;;17.90;73.40;;;;;;4926319;28;20051;-72
2022/09/04 00:21:24;;;;;;;2.05;0.90;;;17.80;73.30;;;;;;4962701;28;21983;-72
2022/09/04 00:23:56;;;;;;;3.00;1.33;;;17.80;73.50;;;;;;4966186;28;20453;-72
2022/09/04 00:26:40;;;;;;;3.30;1.20;;;17.80;73.50;;;;;;4957517;28;20097;-72
2022/09/04 00:29:29;;;;;;;2.42;1.10;;;17.80;73.60;;;;;;4984649;28;20116;-72
2022/09/04 00:32:37;;;;;;;3.65;1.35;;;17.80;73.60;;;;;;4959402;28;20057;-72
2022/09/04 00:35:21;;;;;;;1.67;0.90;;;17.70;73.70;;;;;;4976385;28;20046;-72
2022/09/04 00:38:05;;;;;;;1.67;0.88;;;17.70;73.90;;;;;;4971472;28;20078;-72
2022/09/04 00:40:32;;;;;;;2.35;1.10;;;17.70;73.90;;;;;;4964484;28;20054;-72
2022/09/04 00:43:36;;;;;;;2.22;1.15;;;17.60;74.00;;;;;;4968887;28;20372;-73
2022/09/04 00:46:39;;;;;;;2.65;1.00;;;17.60;74.10;;;;;;4953787;28;20828;-72
2022/09/04 00:49:23;;;;;;;2.50;0.98;;;17.60;74.40;;;;;;4959313;28;20635;-72
2022/09/04 00:52:06;;;;;;;1.63;0.88;;;17.50;74.30;;;;;;4965234;28;20043;-72
2022/09/04 00:55:06;;;;;;;2.05;0.80;;;17.50;74.50;;;;;;4963094;28;20437;-72
2022/09/04 00:57:50;;;;;;;1.80;1.00;;;17.50;74.80;;;;;;4963442;28;20046;-72
2022/09/04 01:00:18;;;;;;;4.85;0.93;;;17.50;74.90;;;;;;4968169;28;20046;-72
2022/09/04 01:03:11;;;;;;;1.77;1.00;;;17.50;75.00;;;;;;4967986;28;20061;-72
2022/09/04 01:06:06;;;;;;;3.40;1.30;;;17.40;75.10;;;;;;4969933;28;20078;-72
2022/09/04 01:09:14;;;;;;;3.65;0.93;;;17.40;75.30;;;;;;4975038;28;20097;-72
2022/09/04 01:11:47;;;;;;;3.60;1.35;;;17.40;75.50;;;;;;4955401;28;20050;-71
2022/09/04 01:14:28;;;;;;;9.15;1.83;;;17.30;75.40;;;;;;4965923;28;20053;-72
2022/09/04 01:17:26;;;;;;;2.75;1.20;;;17.30;75.90;;;;;;4961767;28;20054;-72
2022/09/04 01:20:26;;;;;;;2.17;1.10;;;17.30;75.80;;;;;;4974213;28;20244;-72
2022/09/04 01:23:13;;;;;;;2.45;1.33;;;17.20;76.20;;;;;;4982482;28;20038;-72
2022/09/04 01:26:03;;;;;;;1.73;0.90;;;17.20;76.20;;;;;;4974261;28;20066;-72
2022/09/04 01:28:52;;;;;;;3.25;0.95;;;17.20;76.50;;;;;;4983735;28;20043;-72
2022/09/04 01:31:55;;;;;;;2.38;1.20;;;17.20;76.90;;;;;;4965957;28;20042;-72
2022/09/04 01:34:51;;;;;;;2.55;1.30;;;17.10;76.80;;;;;;4966058;28;20396;-72
2022/09/04 01:37:17;;;;;;;2.80;1.23;;;17.10;76.80;;;;;;4971565;28;20038;-72
2022/09/04 01:39:47;;;;;;;2.33;1.08;;;17.10;77.00;;;;;;4975560;28;20189;-72
2022/09/04 01:42:21;;;;;;;2.80;1.15;;;17.10;77.20;;;;;;4984093;28;20552;-72
2022/09/04 01:44:47;;;;;;;2.53;1.10;;;17.10;77.40;;;;;;4967747;28;20042;-72
2022/09/04 01:47:34;;;;;;;2.55;1.33;;;17.00;77.60;;;;;;4971392;28;20041;-72
2022/09/04 01:50:06;;;;;;;2.83;1.27;;;17.00;78.70;;;;;;4968840;28;20078;-72
2022/09/04 01:52:43;;;;;;;1.67;0.98;;;17.00;78.00;;;;;;4965263;28;20042;-72
2022/09/04 01:55:12;;;;;;;2.20;1.23;;;16.90;78.40;;;;;;4962609;28;20035;-72
2022/09/04 01:57:50;;;;;;;2.55;1.30;;;16.90;78.50;;;;;;4969900;28;20297;-72
2022/09/04 02:00:21;;;;;;;2.55;1.23;;;16.90;78.60;;;;;;4965318;28;20042;-72
2022/09/04 02:03:11;;;;;;;3.08;1.20;;;16.80;78.70;;;;;;4972107;28;20137;-72
2022/09/04 02:05:43;;;;;;;2.28;1.35;;;16.80;78.90;;;;;;4966890;28;20050;-72
2022/09/04 02:08:34;;;;;;;3.60;1.10;;;16.80;79.00;;;;;;4972079;28;20043;-72
2022/09/04 02:11:15;;;;;;;2.40;1.10;;;16.80;79.20;;;;;;4963832;28;20046;-72
2022/09/04 02:14:03;;;;;;;2.72;1.30;;;16.80;79.50;;;;;;4956138;28;20089;-72
2022/09/04 02:16:47;;;;;;;;;;;16.80;79.90;;;;;;4967250;28;20166;-72
2022/09/04 02:19:24;;;;;;;3.08;1.00;;;16.80;80.40;;;;;;4964163;28;19964;-72
2022/09/04 02:21:54;;;;;;;2.47;1.10;;;16.70;79.90;;;;;;4973720;28;20034;-72
2022/09/04 02:25:06;;;;;;;2.05;1.20;;;16.70;80.10;;;;;;4963903;28;20039;-72
2022/09/04 02:27:56;;;;;;;4.78;1.30;;;16.70;80.70;;;;;;4907127;28;20043;-72
2022/09/04 02:30:22;;;;;;;2.00;1.00;;;16.60;81.00;;;;;;4980650;28;20047;-72
2022/09/04 02:33:17;;;;;;;2.80;1.00;;;16.60;80.90;;;;;;4956228;28;20082;-72
2022/09/04 02:36:12;;;;;;;2.90;1.10;;;16.60;81.30;;;;;;4965712;28;20390;-72
2022/09/04 02:38:50;;;;;;;3.33;1.40;;;16.60;81.80;;;;;;4972534;28;20061;-72
2022/09/04 02:41:51;;;;;;;2.28;1.20;;;16.50;81.50;;;;;;4960408;28;20090;-72
2022/09/04 02:44:33;;;;;;;3.15;1.35;;;16.50;82.20;;;;;;4916357;28;20051;-72
2022/09/04 02:47:11;;;;;;;2.20;1.15;;;16.50;81.90;;;;;;4964718;28;20117;-72
2022/09/04 02:49:42;;;;;;;2.17;1.35;;;16.50;82.10;;;;;;4954449;28;20170;-72
2022/09/04 02:52:32;;;;;;;3.13;1.02;;;16.50;82.20;;;;;;4982685;28;20039;-72
2022/09/04 02:55:20;;;;;;;3.05;1.15;;;16.40;82.50;;;;;;4969146;28;20086;-72
2022/09/04 02:57:57;;;;;;;4.80;1.45;;;16.40;83.20;;;;;;4966695;28;20045;-72
2022/09/04 03:00:42;;;;;;;;;;;16.40;83.00;;;;;;4968310;28;20046;-72
2022/09/04 03:03:19;;;;;;;2.28;1.08;;;16.40;83.60;;;;;;4964275;28;19918;-72
2022/09/04 03:06:12;;;;;;;2.25;1.20;;;16.30;83.30;;;;;;4966073;28;20484;-72
2022/09/04 03:08:55;;;;;;;1.95;1.00;;;16.40;83.80;;;;;;4978962;28;20049;-72
2022/09/04 03:11:34;;;;;;;1.90;1.00;;;16.30;84.80;;;;;;4955793;28;20125;-72
2022/09/04 03:14:12;;;;;;;2.22;1.13;;;16.30;84.40;;;;;;4977123;28;20049;-71
2022/09/04 03:16:47;;;;;;;3.38;1.27;;;16.30;84.90;;;;;;4979527;28;20122;-72
2022/09/04 03:19:31;;;;;;;2.28;1.05;;;16.20;85.00;;;;;;4958940;28;20384;-72
2022/09/04 03:22:17;;;;;;;3.40;1.40;;;16.20;85.40;;;;;;4961011;28;20054;-72
2022/09/04 03:25:18;;;;;;;4.22;1.10;;;16.20;85.70;;;;;;4969704;28;20049;-72
2022/09/04 03:27:43;;;;;;;2.28;1.00;;;16.10;86.10;;;;;;4977997;28;20039;-72
2022/09/04 03:30:12;;;;;;;2.17;1.33;;;16.10;86.10;;;;;;4967271;28;20073;-72
2022/09/04 03:33:01;;;;;;;1.50;1.00;;;16.10;86.50;;;;;;4961855;28;20142;-72
2022/09/04 03:35:49;;;;;;;2.28;1.30;;;16.00;87.30;;;;;;4978771;28;20046;-72
2022/09/04 03:38:22;;;;;;;2.20;1.02;;;16.00;87.40;;;;;;4966326;28;20178;-72
2022/09/04 03:41:04;;;;;;;1.35;0.85;;;16.00;87.50;;;;;;4963466;28;20049;-72
2022/09/04 03:43:35;;;;;;;6.25;1.40;;;16.00;87.80;;;;;;4973054;28;20046;-72
2022/09/04 03:46:16;;;;;;;1.83;0.80;;;15.90;88.00;;;;;;4975949;28;20488;-72
2022/09/04 03:49:02;;;;;;;4.20;1.45;;;15.90;88.50;;;;;;4959699;28;20272;-72
2022/09/04 03:51:40;;;;;;;3.05;1.30;;;15.90;89.30;;;;;;4967132;28;20038;-72
2022/09/04 03:54:29;;;;;;;2.63;1.52;;;15.90;89.10;;;;;;4967389;28;20047;-72
2022/09/04 03:57:10;;;;;;;2.72;1.38;;;15.80;89.20;;;;;;4961220;28;20038;-72
2022/09/04 03:59:56;;;;;;;2.28;1.30;;;15.80;89.50;;;;;;4966529;28;20035;-72
2022/09/04 04:02:46;;;;;;;2.25;1.40;;;15.80;89.90;;;;;;4970087;28;20046;-71
2022/09/04 04:05:26;;;;;;;3.00;1.10;;;15.80;90.00;;;;;;4970206;28;20065;-71
2022/09/04 04:08:01;;;;;;;2.65;1.10;;;15.80;90.10;;;;;;4982711;28;20101;-72
2022/09/04 04:10:51;;;;;;;2.88;1.60;;;15.70;90.30;;;;;;4978460;28;20640;-71
2022/09/04 04:13:40;;;;;;;5.25;1.50;;;15.80;90.60;;;;;;4946053;28;20073;-72
2022/09/04 04:16:09;;;;;;;2.22;1.08;;;15.80;90.60;;;;;;4983682;28;20051;-72
2022/09/04 04:18:48;;;;;;;2.88;1.20;;;15.70;90.60;;;;;;4976095;28;20052;-72
2022/09/04 04:21:49;;;;;;;2.65;1.15;;;15.80;90.70;;;;;;4968206;28;20440;-71
2022/09/04 04:24:28;;;;;;;3.13;1.10;;;15.80;90.70;;;;;;4963924;28;20069;-72
2022/09/04 04:27:13;;;;;;;4.38;1.30;;;15.80;90.80;;;;;;4960328;28;20505;-72
2022/09/04 04:30:04;;;;;;;3.10;1.27;;;15.80;90.90;;;;;;4988262;28;20045;-72
2022/09/04 04:32:47;;;;;;;3.15;1.42;;;15.80;91.00;;;;;;4977043;28;20500;-72
2022/09/04 04:35:28;;;;;;;2.95;1.45;;;15.80;90.90;;;;;;4959998;28;20144;-72
2022/09/04 04:38:06;;;;;;;2.33;1.30;;;15.80;91.20;;;;;;4977242;28;20070;-72
2022/09/04 04:40:40;;;;;;;3.08;1.52;;;15.90;91.20;;;;;;4967879;28;20050;-72
2022/09/04 04:43:38;;;;;;;6.22;1.33;;;15.90;91.30;;;;;;4968827;28;20054;-72
2022/09/04 04:46:53;;;;;;;2.72;1.30;;;15.80;91.30;;;;;;4984054;28;20034;-72
2022/09/04 04:49:47;;;;;;;3.33;1.15;;;15.80;91.50;;;;;;4957377;28;20115;-72
2022/09/04 04:52:48;;;;;;;4.25;1.40;;;15.80;91.50;;;;;;4978645;28;20482;-72
2022/09/04 04:55:30;;;;;;;5.70;1.33;;;15.90;91.50;;;;;;4961918;28;20516;-72
2022/09/04 04:58:10;;;;;;;4.90;1.58;;;15.80;91.50;;;;;;4966580;28;20050;-71
2022/09/04 05:01:05;;;;;;;4.03;1.10;;;15.80;91.60;;;;;;4960511;28;20046;-72
2022/09/04 05:03:46;;;;;;;5.82;1.33;;;15.90;91.70;;;;;;4963683;28;20578;-72
2022/09/04 05:06:40;;;;;;;3.38;1.40;;;15.80;91.80;;;;;;4966970;28;20054;-72
2022/09/04 05:09:30;;;;;;;3.65;1.70;;;15.90;92.00;;;;;;4974947;28;20095;-71
2022/09/04 05:12:15;;;;;;;2.92;1.30;;;15.90;92.00;;;;;;4967962;28;20130;-72
2022/09/04 05:15:00;;;;;;;2.35;1.60;;;15.90;92.20;;;;;;4968868;28;20042;-72
2022/09/04 05:17:39;;;;;;;6.55;1.50;;;15.90;92.30;;;;;;4969617;28;20405;-72
2022/09/04 05:20:26;;;;;;;2.95;1.50;;;15.90;92.30;;;;;;4977471;28;20047;-71
2022/09/04 05:23:21;;;;;;;2.97;1.42;;;15.80;92.30;;;;;;4959736;28;20035;-71
2022/09/04 05:26:20;;;;;;;3.47;1.63;;;15.90;92.50;;;;;;4962587;28;20101;-72
2022/09/04 05:29:00;;;;;;;3.50;1.17;;;15.90;92.80;;;;;;4998596;22;20197;-72
2022/09/04 05:31:47;;;;;;;3.50;1.45;;;15.90;92.60;;;;;;4989995;28;20084;-72
2022/09/04 05:34:26;;;;;;;2.75;1.00;;;15.90;92.60;;;;;;4978258;28;20046;-72
2022/09/04 05:37:15;;;;;;;2.95;1.38;;;15.90;92.70;;;;;;4977199;28;20046;-72
2022/09/04 05:40:10;;;;;;;6.57;2.15;;;15.90;92.70;;;;;;4984035;28;20519;-71
2022/09/04 05:43:11;;;;;;;2.53;1.52;;;16.00;92.90;;;;;;4977726;28;20069;-72
2022/09/04 05:45:46;;;;;;;2.88;1.52;;;15.90;92.90;;;;;;4977859;28;20049;-72
2022/09/04 05:48:39;;;;;;;4.88;1.58;;;16.00;92.90;;;;;;4991802;28;20035;-72
2022/09/04 05:51:17;;;;;;;4.72;1.38;;;16.00;93.10;;;;;;4979710;28;20050;-71
2022/09/04 05:54:09;;;;;;;2.15;1.35;;;16.00;93.10;;;;;;4980582;28;20048;-72
2022/09/04 05:57:19;;;;;;;2.67;1.60;;;16.00;93.10;;;;;;4976879;28;20407;-72
2022/09/04 06:00:06;;;;;;;2.05;1.00;;;16.10;93.30;;;;;;4983647;28;20057;-72
2022/09/04 06:02:37;;;;;;;2.13;1.27;;;16.10;93.20;;;;;;4994099;28;20046;-72
2022/09/04 06:05:22;;;;;;;3.15;1.42;;;16.10;93.30;;;;;;4998503;28;20045;-72
2022/09/04 06:08:26;;;;;;;3.22;1.52;;;16.10;93.60;;;;;;4983339;28;20041;-72
2022/09/04 06:11:14;;;;;;;2.55;1.35;;;16.20;93.90;;;;;;4977824;28;20244;-72
2022/09/04 06:14:21;;;;;;;4.50;1.60;;;16.20;93.60;;;;;;4999945;28;20060;-72
2022/09/04 06:17:10;;;;;;;1.45;1.05;;;16.20;93.60;;;;;;4905764;28;20124;-72
2022/09/04 06:19:53;;;;;;;3.63;1.60;;;16.20;93.60;;;;;;5000655;28;20148;-72
2022/09/04 06:22:28;;;;;;;3.75;2.03;;;16.20;93.70;;;;;;4996445;28;20122;-72
2022/09/04 06:25:08;;;;;;;5.63;1.38;;;16.30;94.10;;;;;;4983597;28;20077;-71
2022/09/04 06:28:01;;;;;;;3.65;1.58;;;16.30;94.20;;;;;;5002287;28;20571;-72
2022/09/04 06:30:37;;;;;;;3.83;1.52;;;16.30;94.10;;;;;;4998317;28;20506;-73
2022/09/04 06:33:51;;;;;;;3.95;1.60;;;16.40;94.30;;;;;;4980529;28;20068;-72
2022/09/04 06:36:39;;;;;;;2.70;1.67;;;16.40;94.30;;;;;;4977464;28;20046;-72
2022/09/04 06:39:42;;;;;;;2.40;1.23;;;16.40;94.40;;;;;;5000466;28;20411;-72
2022/09/04 06:42:20;;;;;;;2.80;1.50;;;16.50;94.90;;;;;;4987498;28;20061;-72
2022/09/04 06:45:04;;;;;;;3.00;1.48;;;16.50;94.70;;;;;;5004394;28;20042;-72
2022/09/04 06:47:48;;;;;;;3.03;1.65;;;16.50;94.90;;;;;;4988473;28;20453;-72
2022/09/04 06:50:23;;;;;;;3.90;1.55;;;16.60;94.80;;;;;;5004603;28;20401;-72
2022/09/04 06:53:17;;;;;;;5.00;1.40;;;16.60;94.70;;;;;;4984395;28;20400;-72
2022/09/04 06:55:55;;;;;;;2.03;1.25;;;16.70;94.80;;;;;;4992227;28;20113;-72
2022/09/04 06:58:41;;;;;;;3.35;1.40;;;16.80;94.80;;;;;;4982118;28;20594;-72
2022/09/04 07:01:12;;;;;;;3.17;1.50;;;16.90;95.00;;;;;;4989506;28;20103;-72
2022/09/04 07:04:04;;;;;;;3.88;1.20;;;17.00;95.10;;;;;;4983560;28;20353;-74
2022/09/04 07:06:57;;;;;;;4.63;1.80;;;17.00;94.90;;;;;;4996603;28;20096;-71
2022/09/04 07:09:29;;;;;;;4.22;1.30;;;17.10;94.90;;;;;;5003869;28;20117;-73
2022/09/04 07:12:37;;;;;;;3.75;1.38;;;17.20;94.70;;;;;;4988135;28;20526;-73
2022/09/04 07:15:31;;;;;;;2.40;1.30;;;17.20;95.00;;;;;;4968300;28;20125;-73
2022/09/04 07:18:22;;;;;;;3.00;1.30;;;17.30;95.00;;;;;;4941779;28;20540;-73
2022/09/04 07:21:09;;;;;;;4.05;1.58;;;17.40;94.90;;;;;;4984204;28;20049;-73
2022/09/04 07:23:47;;;;;;;;;;;17.50;95.00;;;;;;4986103;28;20038;-73
2022/09/04 07:26:36;;;;;;;3.28;1.60;;;17.50;95.40;;;;;;4987605;28;20401;-73
2022/09/04 07:29:18;;;;;;;3.03;1.40;;;17.60;94.80;;;;;;4986810;28;20046;-73
2022/09/04 07:31:52;;;;;;;2.65;1.48;;;17.70;94.50;;;;;;4998448;28;20054;-74
2022/09/04 07:34:26;;;;;;;2.17;1.20;;;17.70;94.50;;;;;;4997623;28;20038;-73
2022/09/04 07:37:22;;;;;;;4.55;1.30;;;17.80;94.50;;;;;;5002951;28;20046;-73
2022/09/04 07:40:10;;;;;;;2.67;1.60;;;17.90;94.40;;;;;;4981777;28;20085;-74
2022/09/04 07:43:14;;;;;;;2.22;1.30;;;18.00;94.30;;;;;;4998744;28;20428;-72
2022/09/04 07:45:53;;;;;;;3.00;1.17;;;18.10;94.40;;;;;;4985970;28;20065;-74
2022/09/04 07:48:36;;;;;;;3.05;1.00;;;18.10;94.60;;;;;;5005722;28;20041;-72
2022/09/04 07:51:14;;;;;;;2.67;1.50;;;18.20;94.40;;;;;;4986544;28;20057;-76
2022/09/04 07:53:58;;;;;;;3.10;1.25;;;18.30;94.40;;;;;;5001696;28;20068;-76
2022/09/04 07:56:44;;;;;;;4.30;1.67;;;18.30;94.20;;;;;;4984359;28;20460;-74
2022/09/04 07:59:37;;;;;;;3.97;1.83;;;18.40;94.20;;;;;;4988737;28;20061;-71
2022/09/04 08:02:27;;;;;;;4.00;1.33;;;18.50;94.30;;;;;;4968244;28;20089;-71
2022/09/04 08:05:19;;;;;;;1.55;0.98;;;18.50;94.30;;;;;;4982024;28;20053;-73
2022/09/04 08:08:16;;;;;;;2.65;1.17;;;18.60;94.50;;;;;;4984416;28;20040;-72
2022/09/04 08:11:16;;;;;;;5.60;1.35;;;18.70;94.50;;;;;;4970474;28;20085;-74
2022/09/04 08:14:17;;;;;;;2.45;1.20;;;18.80;94.40;;;;;;4982655;28;20053;-74
2022/09/04 08:16:55;;;;;;;2.92;1.30;;;19.00;94.90;;;;;;4979076;28;20126;-71
2022/09/04 08:19:47;;;;;;;3.70;1.55;;;19.00;94.20;;;;;;4976500;28;20327;-71
2022/09/04 08:22:27;;;;;;;4.50;1.60;;;19.20;94.00;;;;;;4982344;28;20096;-71
2022/09/04 08:25:11;;;;;;;2.58;1.40;;;19.20;94.20;;;;;;4988344;28;20666;-71
2022/09/04 08:27:46;;;;;;;3.85;2.03;;;19.30;93.90;;;;;;4983994;28;20122;-71
2022/09/04 08:30:17;;;;;;;3.88;1.40;;;19.40;93.90;;;;;;4980383;28;20050;-72
2022/09/04 08:33:07;;;;;;;3.47;1.30;;;19.50;93.80;;;;;;4965798;28;20056;-72
2022/09/04 08:35:55;;;;;;;1.73;1.23;;;19.60;93.80;;;;;;4970464;28;21128;-73
2022/09/04 08:38:42;;;;;;;2.75;1.20;;;19.70;93.70;;;;;;4978570;28;20076;-74
2022/09/04 08:41:14;;;;;;;4.78;1.00;;;19.80;93.70;;;;;;4982251;28;20435;-71
2022/09/04 08:44:08;;;;;;;3.03;1.48;;;19.90;93.60;;;;;;4984064;28;20393;-71
2022/09/04 08:47:11;;;;;;;3.30;2.00;;;20.00;93.50;;;;;;4981804;28;20144;-71
2022/09/04 08:50:01;;;;;;;5.72;1.73;;;20.10;93.30;;;;;;5006472;28;20050;-71
2022/09/04 08:53:00;;;;;;;3.05;1.65;;;20.30;93.20;;;;;;4982488;28;20512;-72
2022/09/04 08:55:29;;;;;;;1.63;1.00;;;20.40;93.20;;;;;;4961785;28;20506;-71
2022/09/04 08:58:38;;;;;;;2.50;1.52;;;20.50;93.10;;;;;;4988007;28;20042;-72
2022/09/04 09:01:09;;;;;;;1.45;1.08;;;20.60;93.00;;;;;;4987792;28;20046;-72
2022/09/04 09:03:44;;;;;;;3.33;1.35;;;20.70;92.80;;;;;;4980962;28;20064;-71
2022/09/04 09:06:28;;;;;;;2.47;1.10;;;20.80;92.80;;;;;;4997156;28;20694;-71
2022/09/04 09:09:12;;;;;;;2.92;1.30;;;21.00;92.80;;;;;;4985359;28;20399;-71
2022/09/04 09:11:57;;;;;;;2.45;1.17;;;21.10;92.40;;;;;;5000491;28;20192;-71
2022/09/04 09:14:23;;;;;;;2.50;1.20;;;21.10;92.20;;;;;;4983584;28;20052;-71
2022/09/04 09:17:12;;;;;;;3.78;1.25;;;21.20;92.00;;;;;;4988293;28;20395;-71
2022/09/04 09:19:51;;;;;;;2.55;1.30;;;21.30;91.80;;;;;;4985857;28;20567;-71
2022/09/04 09:22:31;;;;;;;2.08;1.20;;;21.40;92.20;;;;;;4986487;28;20049;-71
2022/09/04 09:25:44;;;;;;;2.28;1.10;;;21.50;92.20;;;;;;5001734;28;20029;-71
2022/09/04 09:28:47;;;;;;;2.22;1.20;;;21.60;91.80;;;;;;4982277;28;20121;-71
2022/09/04 09:31:30;;;;;;;1.83;1.23;;;21.70;91.60;;;;;;5002917;28;20357;-72
2022/09/04 09:33:55;;;;;;;2.75;1.00;;;21.90;91.40;;;;;;4975891;28;20153;-71
2022/09/04 09:36:37;;;;;;;2.38;1.20;;;22.00;91.30;;;;;;4968022;28;20156;-71
2022/09/04 09:39:21;;;;;;;2.95;1.38;;;22.10;91.10;;;;;;4983549;28;20286;-71
2022/09/04 09:42:29;;;;;;;3.97;1.55;;;22.20;90.50;;;;;;4989794;28;20078;-72
2022/09/04 09:45:30;;;;;;;2.70;1.15;;;22.30;90.80;;;;;;4983434;28;20084;-71
2022/09/04 09:48:23;;;;;;;3.47;1.27;;;22.40;90.80;;;;;;5005446;28;20038;-71
2022/09/04 09:51:18;;;;;;;3.00;1.35;;;22.60;90.70;;;;;;5006816;28;20061;-72
2022/09/04 09:54:20;;;;;;;2.15;1.02;;;22.70;90.30;;;;;;5007235;28;20523;-71
2022/09/04 09:57:24;;;;;;;1.90;1.08;;;22.80;90.30;;;;;;4989740;28;20038;-71
2022/09/04 10:00:05;;;;;;;2.20;1.20;;;23.00;90.00;;;;;;4989323;28;20408;-71
2022/09/04 10:02:46;;;;;;;2.42;1.30;;;23.10;89.80;;;;;;4988978;28;20054;-71
2022/09/04 10:05:18;;;;;;;2.90;1.70;;;23.20;89.20;;;;;;4971270;28;20105;-71
2022/09/04 10:07:52;;;;;;;2.15;1.10;;;23.20;88.70;;;;;;4990297;28;20081;-72
2022/09/04 10:11:16;;;;;;;3.72;1.00;;;23.30;88.30;;;;;;5002644;28;20429;-71
2022/09/04 10:14:00;;;;;;;2.30;1.15;;;23.50;87.30;;;;;;4885496;29;20072;-71
2022/09/04 10:16:46;;;;;;;1.50;1.02;;;23.60;86.90;;;;;;4987490;28;20425;-71
2022/09/04 10:19:27;;;;;;;2.60;1.20;;;23.70;86.50;;;;;;4999127;28;20471;-71
2022/09/04 10:22:08;;;;;;;2.42;1.10;;;23.80;85.80;;;;;;5007064;28;20076;-71
2022/09/04 10:25:05;;;;;;;1.92;1.00;;;23.90;84.90;;;;;;5005272;28;20129;-72
2022/09/04 10:27:49;;;;;;;2.45;0.95;;;24.00;83.90;;;;;;4985480;28;20050;-72
2022/09/04 10:30:22;;;;;;;1.80;0.93;;;24.00;84.30;;;;;;4982526;28;20087;-72
2022/09/04 10:33:20;;;;;;;2.63;1.10;;;24.00;83.70;;;;;;4986706;28;20121;-72
2022/09/04 10:36:08;;;;;;;1.65;1.00;;;24.00;83.00;;;;;;5004753;28;20041;-71
2022/09/04 10:41:57;;;;;;;2.10;1.20;;;24.30;82.20;;;;;;5004118;28;20046;-71
2022/09/04 10:44:57;;;;;;;2.55;0.95;;;24.40;81.50;;;;;;4987989;28;20163;-71
2022/09/04 10:47:52;;;;;;;4.05;1.20;;;24.50;80.90;;;;;;5005333;28;20087;-72
2022/09/04 10:50:55;;;;;;;2.42;1.00;;;24.70;80.20;;;;;;4970664;28;20057;-72
2022/09/04 10:54:06;;;;;;;1.73;1.00;;;24.70;78.10;;;;;;4997521;28;20464;-72
2022/09/04 10:57:03;;;;;;;1.67;1.00;;;24.80;79.20;;;;;;4947556;28;20062;-72
2022/09/04 10:59:35;;;;;;;;;;;24.90;79.30;;;;;;4882362;28;20504;-72
2022/09/04 11:02:13;;;;;;;3.78;1.10;;;24.90;79.60;;;;;;4976458;28;19924;-72
2022/09/04 11:05:01;;;;;;;2.15;1.10;;;25.00;79.20;;;;;;5000903;28;20045;-72
2022/09/04 11:07:50;;;;;;;1.60;0.80;;;25.10;78.50;;;;;;5005920;28;20057;-71
2022/09/04 11:10:53;;;;;;;4.13;1.08;;;25.30;78.50;;;;;;4928800;28;20050;-72
2022/09/04 11:13:22;;;;;;;1.83;1.05;;;25.40;78.40;;;;;;5002201;28;20069;-71
2022/09/04 11:16:19;;;;;;;2.92;1.15;;;25.50;78.30;;;;;;4987231;28;20113;-72
2022/09/04 11:19:09;;;;;;;1.50;1.00;;;25.60;76.60;;;;;;4991155;28;20052;-71
2022/09/04 11:22:19;;;;;;;4.30;1.08;;;25.70;77.20;;;;;;4987432;28;20095;-71
2022/09/04 11:25:08;;;;;;;1.77;0.88;;;25.80;75.50;;;;;;4986154;28;20125;-72
2022/09/04 11:27:57;;;;;;;2.35;1.00;;;25.80;76.80;;;;;;4999496;22;20108;-74
2022/09/04 11:30:47;;;;;;;2.00;0.90;;;26.00;76.50;;;;;;5003566;28;20061;-74
2022/09/04 11:33:37;;;;;;;1.23;0.80;;;26.00;76.00;;;;;;4987404;28;20069;-74
2022/09/04 11:36:34;;;;;;;1.90;0.85;;;26.20;75.80;;;;;;4987378;28;20070;-75
2022/09/04 11:39:14;;;;;;;1.25;0.80;;;26.20;75.20;;;;;;4987053;28;20030;-75
2022/09/04 11:42:02;;;;;;;2.50;1.20;;;26.30;73.80;;;;;;4963947;28;20125;-75
2022/09/04 11:44:59;;;;;;;1.58;0.90;;;26.40;73.50;;;;;;4985609;28;20121;-75
2022/09/04 11:47:41;;;;;;;1.30;0.90;;;26.50;73.60;;;;;;4983951;28;20046;-76
2022/09/04 11:50:37;;;;;;;1.67;0.98;;;26.50;73.80;;;;;;4983000;28;20073;-76
2022/09/04 11:53:41;;;;;;;1.42;0.85;;;26.50;74.20;;;;;;4986827;28;20038;-75
2022/09/04 11:56:54;;;;;;;1.90;0.80;;;26.50;73.00;;;;;;4984906;28;20038;-75
2022/09/04 11:59:48;;;;;;;1.42;0.75;;;26.50;73.50;;;;;;4976197;28;20140;-74
2022/09/04 12:02:26;;;;;;;1.50;0.75;;;26.60;73.40;;;;;;4984621;28;20038;-74
2022/09/04 12:05:15;;;;;;;1.52;0.88;;;26.50;73.00;;;;;;4983279;28;20065;-75
2022/09/04 12:08:03;;;;;;;1.20;0.80;;;26.50;73.30;;;;;;4984522;28;20077;-75
2022/09/04 12:10:43;;;;;;;1.65;0.90;;;26.60;72.80;;;;;;4983405;28;20042;-75
2022/09/04 12:13:45;;;;;;;3.35;1.05;;;26.60;72.90;;;;;;4968883;28;20049;-75
2022/09/04 12:16:41;;;;;;;1.52;0.90;;;26.70;72.40;;;;;;5005045;28;20038;-75
2022/09/04 12:19:15;;;;;;;1.08;0.77;;;26.80;72.90;;;;;;4988070;28;20050;-75
2022/09/04 12:22:13;;;;;;;1.38;0.80;;;26.80;72.10;;;;;;4986210;28;20508;-75
2022/09/04 12:24:57;;;;;;;1.80;0.88;;;27.00;71.50;;;;;;4983349;28;20057;-74
2022/09/04 12:27:37;;;;;;;2.22;1.02;;;27.10;71.80;;;;;;4985748;28;20050;-75
2022/09/04 12:30:24;;;;;;;1.15;0.80;;;27.20;72.20;;;;;;4983422;28;20370;-75
2022/09/04 12:33:11;;;;;;;1.23;0.90;;;27.30;71.00;;;;;;4983952;28;20034;-76
2022/09/04 12:35:47;;;;;;;1.30;0.80;;;27.30;70.30;;;;;;4989593;28;20108;-76
2022/09/04 12:38:53;;;;;;;0.63;0.63;;;27.30;70.20;;;;;;4985933;28;20420;-76
2022/09/04 12:41:32;;;;;;;2.65;0.95;;;27.40;70.00;;;;;;4983159;28;20046;-76
2022/09/04 12:44:10;;;;;;;1.88;0.95;;;27.40;69.70;;;;;;4982995;28;20497;-75
2022/09/04 12:46:38;;;;;;;1.52;0.90;;;27.50;69.80;;;;;;4985323;28;20054;-75
2022/09/04 12:49:37;;;;;;;1.80;0.80;;;27.60;70.30;;;;;;4983240;28;20046;-76
2022/09/04 12:52:18;;;;;;;5.05;1.52;;;27.70;69.60;;;;;;4984686;28;20038;-75
2022/09/04 12:55:11;;;;;;;1.63;0.90;;;27.80;69.20;;;;;;5000847;28;20466;-76
2022/09/04 12:58:06;;;;;;;2.30;1.00;;;27.90;68.70;;;;;;4981133;28;20047;-76
2022/09/04 13:00:39;;;;;;;3.30;1.25;;;28.00;68.40;;;;;;4982193;28;20046;-76
2022/09/04 13:03:32;;;;;;;1.67;0.90;;;28.10;68.10;;;;;;4984801;28;20089;-75
2022/09/04 13:06:33;;;;;;;1.42;0.90;;;28.20;67.70;;;;;;4980468;28;20531;-76
2022/09/04 13:09:09;;;;;;;1.40;0.77;;;28.20;67.40;;;;;;4984564;28;20555;-76
2022/09/04 13:11:56;;;;;;;2.08;1.00;;;28.20;67.20;;;;;;4985373;28;20096;-76
2022/09/04 13:14:40;;;;;;;1.73;0.88;;;28.20;67.30;;;;;;4967505;28;20058;-76
2022/09/04 13:17:42;;;;;;;1.83;1.05;;;28.30;67.10;;;;;;4970403;28;20046;-76
2022/09/04 13:20:16;;;;;;;4.05;1.42;;;28.30;66.10;;;;;;4983196;28;20057;-76
2022/09/04 13:22:45;;;;;;;2.92;1.10;;;28.30;65.80;;;;;;4986562;28;20053;-76
2022/09/04 13:25:10;;;;;;;2.08;1.17;;;28.30;66.50;;;;;;4986208;28;20042;-75
2022/09/04 13:28:01;;;;;;;1.55;0.93;;;28.30;66.30;;;;;;4991865;28;20038;-76
2022/09/04 13:30:29;;;;;;;1.10;0.80;;;28.30;66.30;;;;;;4978615;28;20038;-76
2022/09/04 13:33:19;;;;;;;1.58;1.10;;;28.30;66.60;;;;;;4980822;28;20050;-76
2022/09/04 13:36:34;;;;;;;1.88;1.10;;;28.30;65.80;;;;;;5004746;28;20049;-76
2022/09/04 13:39:22;;;;;;;1.23;0.77;;;28.30;65.80;;;;;;4965097;28;20046;-75
2022/09/04 13:42:10;;;;;;;2.05;0.77;;;28.40;65.90;;;;;;4987360;28;20046;-75
2022/09/04 13:44:57;;;;;;;1.73;0.93;;;28.40;65.20;;;;;;4984442;28;20122;-75
2022/09/04 13:47:25;;;;;;;1.35;0.80;;;28.50;65.60;;;;;;4989143;28;20125;-75
2022/09/04 13:50:12;;;;;;;2.17;1.27;;;28.60;65.50;;;;;;4983356;28;20042;-75
2022/09/04 13:53:04;;;;;;;1.10;0.65;;;28.70;65.00;;;;;;4987459;28;20062;-75
2022/09/04 13:55:36;;;;;;;1.05;0.70;;;28.80;64.70;;;;;;4983815;28;20053;-75
2022/09/04 13:58:12;;;;;;;1.30;0.98;;;28.80;64.30;;;;;;4985489;28;20061;-75
2022/09/04 14:00:48;;;;;;;1.30;0.93;;;28.80;64.30;;;;;;4984425;28;20070;-75
2022/09/04 14:03:29;;;;;;;1.42;0.93;;;28.80;64.10;;;;;;4986345;28;20408;-75
2022/09/04 14:05:55;;;;;;;2.50;1.05;;;28.90;63.70;;;;;;4983002;28;20050;-75
2022/09/04 14:08:22;;;;;;;2.00;1.17;;;28.90;63.60;;;;;;4987089;28;20459;-75
2022/09/04 14:10:47;;;;;;;1.55;0.98;;;29.00;63.60;;;;;;4987608;28;20073;-75
2022/09/04 14:13:32;;;;;;;1.55;0.90;;;29.10;63.50;;;;;;4984834;28;20050;-75
2022/09/04 14:16:07;;;;;;;2.88;0.90;;;29.20;63.40;;;;;;4981694;28;20508;-75
2022/09/04 14:18:58;;;;;;;2.45;1.10;;;29.10;63.00;;;;;;4987440;28;20053;-75
2022/09/04 14:21:42;;;;;;;2.17;1.30;;;29.00;62.90;;;;;;4984163;28;20046;-75
2022/09/04 14:24:17;;;;;;;2.53;1.10;;;28.90;63.40;;;;;;4987808;28;20270;-74
2022/09/04 14:27:00;;;;;;;1.40;1.10;;;28.90;63.30;;;;;;4984981;28;20116;-75
2022/09/04 14:29:53;;;;;;;1.60;1.00;;;28.90;62.90;;;;;;4982934;28;20247;-75